Decoded Metar for KOFP (RICHMOND/HANOVER in VA, USA) (IATA:OFP) | Meteo·Mobile Aviation Weather
aviador You're here:

KOFP Decoded Metar

RICHMOND/HANOVER in VA, USA
Report Time2018-08-17 00:54:00
UTC Time2018-08-17 01:30:19
Flight Rules vfr VFR
WindCalm
Visibility9999 m
Phenomena:N/A
Clouds:N/A
Expected CloudBase > 800 ft AGL from Temp-Dew spread
CeilingNone
Temp25°C (ISA +10)
Dew Point23°C (89% RH)
QNH1020 hPa
Density Alt1,542 ft
Elevation203 ft
Report Wrong Elevation
Raw Report
METAR KOFP 170054Z AUTO 00000KT 8SM CLR 25/23 A3011 RMK AO2 SLP194
T02500233=

Extra information for KOFP:More info

Metar Taf Metar & Taf Last 4 Metars F.Rules Stats Wind Profile Meteogram Temp Stats Airport Information Weather charts Add Link Nearby VenuesMetar ALERT Operation Metar Decoded Social comments

AIRNAV info for KOFP